Terminal Aerodrome Forecast
Issued by NWS Sioux Falls, SD

Home | Current Version | Previous Version | Graphics & Text | Print | Product List | Glossary Off
Versions: 1 2 3 4 5 6 7 8 9 10 11 12 13 14 15

180
FTUS43 KFSD 251722
TAFHON
TAF
KHON 251722Z 2518/2618 12007KT P6SM BKN010
     FM251900 10007KT P6SM SCT150
     FM260500 12006KT P6SM OVC015
     FM260900 09004KT P6SM BKN008
     FM261100 07005KT 5SM BR OVC003=

USA.gov is the U.S. government's official web portal to all federal, state and local government web resources and services.